Time;durP1;ratioP1;P1;durP2;ratioP2;P2;SDS_P1;SDS_P2;PMS_P1;PMS_P2;Temp;Humidity;BMP_temperature;BMP_pressure;BME280_temperature;BME280_humidity;BME280_pressure;Samples;Min_cycle;Max_cycle;Signal;HPM_P1;HPM_P2
2022/09/15 00:02:21;;;;;;;3.87;1.10;;;;;;;15.11;72.94;100203.91;6295346;28;20226;-80
2022/09/15 00:05:47;;;;;;;2.20;1.33;;;;;;;15.02;73.27;100199.53;6296778;28;20257;-80
2022/09/15 00:09:09;;;;;;;2.73;1.77;;;;;;;15.03;73.37;100210.25;6305491;28;20242;-81
2022/09/15 00:12:30;;;;;;;2.70;0.83;;;;;;;15.18;72.95;100208.44;6304684;28;20234;-81
2022/09/15 00:15:58;;;;;;;1.50;0.73;;;;;;;15.18;73.31;100213.88;6296864;28;20230;-81
2022/09/15 00:19:20;;;;;;;0.53;0.53;;;;;;;15.07;74.05;100232.44;6291369;28;20226;-82
2022/09/15 00:22:42;;;;;;;0.60;0.60;;;;;;;15.12;73.83;100216.47;6300378;28;20226;-80
2022/09/15 00:26:08;;;;;;;4.63;0.80;;;;;;;15.08;74.23;100231.44;6274799;28;20222;-80
2022/09/15 00:29:31;;;;;;;1.70;1.20;;;;;;;15.06;74.72;100230.75;6300715;28;20367;-81
2022/09/15 00:32:52;;;;;;;0.70;0.60;;;;;;;14.93;77.50;100239.50;6280214;28;20223;-79
2022/09/15 00:36:14;;;;;;;1.53;0.60;;;;;;;14.92;78.18;100237.81;6279715;28;20230;-78
2022/09/15 00:39:35;;;;;;;1.07;0.50;;;;;;;14.92;79.97;100221.50;6290972;28;20233;-78
2022/09/15 00:42:58;;;;;;;2.80;1.27;;;;;;;14.81;81.08;100226.53;6295619;28;20222;-79
2022/09/15 00:46:22;;;;;;;1.27;1.20;;;;;;;14.93;81.02;100225.09;6298410;28;20277;-79
2022/09/15 00:49:45;;;;;;;1.80;0.90;;;;;;;14.82;82.03;100231.75;6283933;28;20678;-79
2022/09/15 00:53:09;;;;;;;1.00;0.70;;;;;;;14.72;82.49;100233.88;6284543;28;20246;-79
2022/09/15 00:56:33;;;;;;;0.93;0.90;;;;;;;14.72;82.61;100223.00;6285929;28;20514;-78
2022/09/15 00:59:57;;;;;;;1.73;0.80;;;;;;;14.84;82.33;100226.16;6298204;28;20317;-79
2022/09/15 01:03:20;;;;;;;0.97;0.90;;;;;;;14.86;82.18;100230.38;6304281;28;20222;-79
2022/09/15 01:06:49;;;;;;;0.50;0.50;;;;;;;14.89;82.25;100221.88;6291873;28;20222;-79
2022/09/15 01:10:14;;;;;;;0.53;0.53;;;;;;;14.88;82.43;100213.91;6304771;28;20666;-80
2022/09/15 01:13:35;;;;;;;0.50;0.50;;;;;;;14.90;82.03;100203.72;6303466;28;20309;-79
2022/09/15 01:17:10;;;;;;;2.00;1.40;;;;;;;14.80;83.00;100213.97;6300637;28;20230;-79
2022/09/15 01:20:58;;;;;;;1.33;1.13;;;;;;;14.79;82.44;100213.09;6308514;28;20645;-79
2022/09/15 01:24:43;;;;;;;1.03;0.43;;;;;;;14.93;82.69;100219.66;6304304;28;20230;-79
2022/09/15 01:28:27;;;;;;;0.60;0.60;;;;;;;14.82;82.72;100215.47;6298646;28;20226;-79
2022/09/15 01:35:44;;;;;;;1.00;0.90;;;;;;;14.65;83.50;100218.47;6306245;28;20233;-80
2022/09/15 01:39:13;;;;;;;0.90;0.90;;;;;;;14.83;82.87;100221.75;6276388;28;20234;-79
2022/09/15 01:42:36;;;;;;;0.93;0.70;;;;;;;14.62;82.75;100213.41;6304718;28;20254;-80
2022/09/15 01:45:59;;;;;;;4.60;0.83;;;;;;;14.59;82.87;100220.03;6290217;28;20602;-81
2022/09/15 01:49:29;;;;;;;1.33;1.00;;;;;;;14.48;82.34;100211.47;6301409;28;20566;-81
2022/09/15 01:52:55;;;;;;;8.60;1.90;;;;;;;14.55;81.90;100224.13;6278819;28;20247;-80
2022/09/15 01:56:17;;;;;;;1.97;1.00;;;;;;;14.43;81.94;100220.94;6300569;28;20253;-80
2022/09/15 01:59:38;;;;;;;4.97;1.00;;;;;;;14.52;81.37;100218.22;6305791;28;20237;-80
2022/09/15 02:03:05;;;;;;;0.90;0.90;;;;;;;14.38;81.33;100217.06;6306443;28;20238;-81
2022/09/15 02:06:35;;;;;;;1.43;1.33;;;;;;;14.50;81.07;100207.53;6301297;28;20226;-81
2022/09/15 02:10:06;;;;;;;1.63;0.93;;;;;;;14.66;80.44;100206.59;6302208;28;20234;-81
2022/09/15 02:13:38;;;;;;;0.80;0.80;;;;;;;14.52;80.91;100207.38;6303103;28;20218;-81
2022/09/15 02:17:00;;;;;;;1.10;0.97;;;;;;;14.47;81.53;100210.59;6288639;28;20226;-81
2022/09/15 02:20:30;;;;;;;3.70;1.50;;;;;;;14.39;82.17;100219.59;6304404;28;20222;-80
2022/09/15 02:24:00;;;;;;;1.80;1.00;;;;;;;14.35;82.29;100223.69;6301407;28;20599;-80
2022/09/15 02:27:24;;;;;;;1.50;0.90;;;;;;;14.40;82.51;100209.63;6292351;28;21979;-79
2022/09/15 02:30:47;;;;;;;2.30;1.27;;;;;;;14.36;82.70;100222.69;6292195;28;20230;-80
2022/09/15 02:34:15;;;;;;;3.07;1.30;;;;;;;14.35;82.73;100225.59;6297869;28;20218;-81
2022/09/15 02:37:38;;;;;;;0.73;0.73;;;;;;;14.53;82.26;100231.59;6296055;28;20321;-80
2022/09/15 02:41:01;;;;;;;1.27;0.87;;;;;;;14.38;84.01;100242.34;6289883;28;20590;-79
2022/09/15 02:44:22;;;;;;;1.03;0.80;;;;;;;14.39;84.67;100243.19;6285331;28;20223;-78
2022/09/15 02:47:44;;;;;;;3.47;1.20;;;;;;;14.22;85.68;100239.66;6288032;28;20230;-78
2022/09/15 02:51:05;;;;;;;2.73;0.90;;;;;;;14.38;85.36;100238.78;6297230;28;20250;-79
2022/09/15 02:54:29;;;;;;;1.97;1.27;;;;;;;14.47;85.11;100240.44;6295970;28;20226;-79
2022/09/15 02:57:52;;;;;;;2.57;1.07;;;;;;;14.53;84.80;100228.03;6284050;28;20246;-79
2022/09/15 03:01:15;;;;;;;0.73;0.73;;;;;;;14.54;85.37;100235.97;6295799;28;20305;-79
2022/09/15 03:04:36;;;;;;;0.67;0.67;;;;;;;14.60;84.92;100218.16;6298703;28;20226;-80
2022/09/15 03:07:57;;;;;;;1.77;0.90;;;;;;;14.59;84.75;100225.44;6301522;28;20525;-79
2022/09/15 03:11:21;;;;;;;2.07;1.00;;;;;;;14.53;85.11;100223.44;6274170;28;20226;-80
2022/09/15 03:14:44;;;;;;;1.43;0.60;;;;;;;14.49;85.17;100230.25;6295399;28;20581;-79
2022/09/15 03:18:05;;;;;;;3.43;0.90;;;;;;;14.49;85.28;100232.13;6304479;28;20641;-80
2022/09/15 03:21:28;;;;;;;7.73;0.87;;;;;;;14.42;85.65;100234.69;6285613;28;20923;-80
2022/09/15 03:24:51;;;;;;;3.47;1.03;;;;;;;14.50;85.83;100234.66;6296357;28;20222;-80
2022/09/15 03:28:11;;;;;;;8.90;0.90;;;;;;;14.45;85.92;100244.34;6287587;28;20222;-80
2022/09/15 03:31:36;;;;;;;2.13;1.03;;;;;;;14.54;85.17;100241.41;6298999;28;20239;-80
2022/09/15 03:34:58;;;;;;;1.53;0.90;;;;;;;14.55;85.83;100255.81;6299958;28;20222;-80
2022/09/15 03:38:19;;;;;;;1.43;1.00;;;;;;;14.59;85.72;100257.16;6289919;28;20234;-79
2022/09/15 03:41:40;;;;;;;2.67;0.70;;;;;;;14.38;86.62;100255.91;6295808;28;20227;-79
2022/09/15 03:45:02;;;;;;;1.53;1.00;;;;;;;14.54;86.81;100262.28;6292057;28;20975;-79
2022/09/15 03:48:26;;;;;;;1.37;1.10;;;;;;;14.43;87.20;100247.25;6296659;28;20317;-79
2022/09/15 03:51:47;;;;;;;1.00;1.00;;;;;;;14.57;86.48;100241.06;6300326;28;20238;-78
2022/09/15 03:55:09;;;;;;;0.80;0.80;;;;;;;14.50;86.63;100247.38;6284974;28;20241;-79
2022/09/15 03:58:30;;;;;;;0.53;0.50;;;;;;;14.43;86.16;100234.50;6291133;28;20223;-79
2022/09/15 04:01:51;;;;;;;0.97;0.80;;;;;;;14.39;86.32;100227.75;6296633;28;20222;-81
2022/09/15 04:05:13;;;;;;;3.13;1.57;;;;;;;14.24;86.86;100232.19;6285980;28;20257;-80
2022/09/15 04:08:34;;;;;;;1.93;1.00;;;;;;;14.21;87.18;100237.97;6304903;28;20249;-80
2022/09/15 04:11:56;;;;;;;1.87;0.77;;;;;;;14.14;87.74;100234.25;6295033;28;20235;-80
2022/09/15 04:15:17;;;;;;;1.10;1.00;;;;;;;14.32;86.55;100229.50;6303609;28;20259;-79
2022/09/15 04:18:38;;;;;;;0.60;0.60;;;;;;;14.35;86.28;100218.28;6297538;28;20631;-79
2022/09/15 04:22:00;;;;;;;1.83;0.83;;;;;;;14.28;87.09;100221.84;6271747;28;20718;-80
2022/09/15 04:25:23;;;;;;;0.80;0.73;;;;;;;14.31;86.84;100218.78;6287089;28;20219;-81
2022/09/15 04:28:45;;;;;;;1.30;1.13;;;;;;;14.19;87.35;100215.59;6292922;28;20373;-80
2022/09/15 04:32:09;;;;;;;3.30;0.93;;;;;;;14.16;87.49;100215.94;6276900;28;20242;-81
2022/09/15 04:35:30;;;;;;;4.40;1.33;;;;;;;14.18;87.56;100222.06;6278401;28;20235;-80
2022/09/15 04:38:56;;;;;;;3.27;0.70;;;;;;;14.25;86.19;100214.03;6290919;28;20222;-82
2022/09/15 04:42:19;;;;;;;8.00;1.23;;;;;;;14.20;86.60;100216.47;6291229;28;20317;-82
2022/09/15 04:45:40;;;;;;;3.17;1.20;;;;;;;14.25;86.44;100220.31;6300649;28;20357;-81
2022/09/15 04:49:02;;;;;;;1.43;1.23;;;;;;;14.18;86.75;100222.06;6302450;28;20254;-81
2022/09/15 04:52:23;;;;;;;1.30;1.00;;;;;;;14.22;86.42;100219.84;6271566;28;20360;-81
2022/09/15 04:55:45;;;;;;;1.53;1.00;;;;;;;14.22;86.69;100214.41;6298325;28;20230;-81
2022/09/15 04:59:06;;;;;;;0.97;0.90;;;;;;;14.23;85.93;100216.94;6296282;28;20234;-81
2022/09/15 05:02:27;;;;;;;2.17;1.10;;;;;;;14.26;85.58;100218.47;6250239;28;20230;-81
2022/09/15 05:05:48;;;;;;;0.77;0.70;;;;;;;14.21;85.08;100210.84;6293956;28;20274;-83
2022/09/15 05:09:14;;;;;;;1.67;1.53;;;;;;;14.17;84.83;100217.66;6286914;28;20623;-81
2022/09/15 05:12:40;;;;;;;0.80;0.50;;;;;;;14.32;83.63;100218.63;6291980;28;20230;-79
2022/09/15 05:16:06;;;;;;;1.87;0.93;;;;;;;14.39;83.52;100224.22;6296390;28;20239;-81
2022/09/15 05:19:33;;;;;;;1.30;1.20;;;;;;;14.20;84.04;100211.88;6291640;28;20226;-83
2022/09/15 05:22:54;;;;;;;1.87;1.10;;;;;;;14.30;83.66;100217.97;6299680;28;20234;-80
2022/09/15 05:26:20;;;;;;;1.73;1.07;;;;;;;14.33;83.13;100214.06;6279264;28;20349;-81
2022/09/15 05:29:43;;;;;;;3.50;0.90;;;;;;;14.33;83.46;100206.75;6277001;28;20269;-81
2022/09/15 05:33:05;;;;;;;2.77;0.83;;;;;;;14.22;83.71;100211.69;6269575;28;20238;-82
2022/09/15 05:36:27;;;;;;;1.20;0.90;;;;;;;14.31;83.16;100219.66;6289782;28;20226;-81
2022/09/15 05:39:59;;;;;;;1.03;0.63;;;;;;;14.41;82.52;100214.03;6290762;28;20226;-81
2022/09/15 05:43:20;;;;;;;1.50;0.80;;;;;;;14.37;82.18;100218.13;6281253;28;20227;-80
2022/09/15 05:46:42;;;;;;;1.33;0.80;;;;;;;14.15;82.68;100208.84;6291766;28;20222;-77
2022/09/15 05:50:03;;;;;;;1.17;0.67;;;;;;;14.27;82.04;100214.72;6270858;28;20234;-75
2022/09/15 05:53:24;;;;;;;2.17;0.87;;;;;;;14.43;81.08;100212.81;6277495;28;20231;-77
2022/09/15 05:56:45;;;;;;;1.50;1.33;;;;;;;14.35;81.34;100222.88;6269694;28;20297;-78
2022/09/15 06:00:10;;;;;;;6.63;1.10;;;;;;;14.32;81.23;100234.06;6290729;28;20235;-78
2022/09/15 06:03:35;;;;;;;4.10;1.10;;;;;;;14.47;80.85;100226.03;6277019;28;20230;-77
2022/09/15 06:06:56;;;;;;;1.17;1.07;;;;;;;14.54;80.66;100224.31;6280527;28;20227;-76
2022/09/15 06:10:17;;;;;;;2.03;1.23;;;;;;;14.37;80.77;100227.06;6285373;28;20600;-73
2022/09/15 06:13:39;;;;;;;4.97;0.80;;;;;;;14.65;80.34;100226.59;6286493;28;20234;-73
2022/09/15 06:17:00;;;;;;;0.93;0.70;;;;;;;14.63;80.41;100224.06;6281899;28;20226;-75
2022/09/15 06:20:22;;;;;;;1.03;1.03;;;;;;;14.71;79.82;100223.16;6282632;28;20599;-77
2022/09/15 06:23:43;;;;;;;1.47;0.90;;;;;;;14.66;79.81;100229.16;6285619;28;21091;-75
2022/09/15 06:27:04;;;;;;;1.87;1.17;;;;;;;14.76;79.91;100229.78;6287689;28;20537;-73
2022/09/15 06:30:26;;;;;;;3.13;0.80;;;;;;;14.56;79.88;100233.09;6270189;28;20231;-77
2022/09/15 06:33:49;;;;;;;1.63;1.27;;;;;;;14.77;79.51;100231.44;6288834;28;20226;-75
2022/09/15 06:37:12;;;;;;;2.40;1.00;;;;;;;15.02;77.86;100234.84;6278417;28;20251;-76
2022/09/15 06:40:33;;;;;;;1.43;0.87;;;;;;;15.08;77.36;100234.16;6298072;28;20235;-77
2022/09/15 06:43:54;;;;;;;3.43;0.57;;;;;;;15.04;77.44;100251.81;6289577;28;20223;-79
2022/09/15 06:47:15;;;;;;;4.60;1.20;;;;;;;14.98;78.07;100266.09;6297273;28;20631;-73
2022/09/15 06:50:36;;;;;;;1.73;0.90;;;;;;;14.71;80.21;100274.72;6292097;28;20568;-75
2022/09/15 06:53:58;;;;;;;1.97;0.93;;;;;;;14.65;80.67;100262.72;6287689;28;20227;-75
2022/09/15 06:57:19;;;;;;;2.03;1.37;;;;;;;14.65;81.35;100261.88;6288714;28;20235;-74
2022/09/15 07:00:41;;;;;;;1.10;0.70;;;;;;;14.73;80.44;100269.97;6291685;28;20226;-74
2022/09/15 07:04:05;;;;;;;2.47;1.10;;;;;;;14.69;79.19;100271.34;6299055;28;20309;-78
2022/09/15 07:07:27;;;;;;;2.20;0.70;;;;;;;14.84;79.13;100270.41;6295315;28;20572;-80
2022/09/15 07:10:49;;;;;;;1.20;0.80;;;;;;;15.19;78.53;100274.44;6296909;28;20222;-75
2022/09/15 07:14:11;;;;;;;1.60;0.80;;;;;;;15.49;76.44;100270.00;6295231;28;20230;-80
2022/09/15 07:17:32;;;;;;;1.10;0.60;;;;;;;15.76;75.52;100270.25;6297597;28;20265;-80
2022/09/15 07:20:58;;;;;;;2.43;1.00;;;;;;;15.57;76.14;100265.34;6276570;28;20266;-75
2022/09/15 07:24:19;;;;;;;3.47;1.53;;;;;;;15.61;76.75;100268.53;6295362;28;20234;-75
2022/09/15 07:27:42;;;;;;;3.50;1.57;;;;;;;15.37;77.98;100275.00;6296409;28;20234;-79
2022/09/15 07:31:04;;;;;;;1.20;0.80;;;;;;;15.66;76.59;100277.84;6304230;28;20568;-82
2022/09/15 07:34:26;;;;;;;1.37;1.03;;;;;;;15.70;76.38;100278.31;6287020;28;20222;-72
2022/09/15 07:37:47;;;;;;;2.77;0.83;;;;;;;15.39;76.49;100280.25;6300216;28;20793;-75
2022/09/15 07:41:10;;;;;;;5.10;0.80;;;;;;;15.40;76.14;100287.34;6295712;28;20650;-74
2022/09/15 07:44:32;;;;;;;1.30;0.90;;;;;;;15.40;75.90;100293.63;6297886;28;20234;-78
2022/09/15 07:47:54;;;;;;;2.10;1.00;;;;;;;15.31;75.42;100281.13;6289476;28;20233;-75
2022/09/15 07:51:16;;;;;;;5.70;3.50;;;;;;;15.20;75.53;100281.56;6299788;28;20234;-77
2022/09/15 07:54:37;;;;;;;2.70;0.87;;;;;;;15.33;74.78;100280.97;6286795;28;20227;-74
2022/09/15 07:57:59;;;;;;;2.57;0.70;;;;;;;15.45;75.59;100291.25;6299672;28;20218;-77
2022/09/15 08:01:22;;;;;;;1.10;0.80;;;;;;;15.82;73.92;100293.13;6294016;28;20596;-75
2022/09/15 08:04:42;;;;;;;0.80;0.60;;;;;;;15.81;74.23;100291.47;6293542;28;20238;-77
2022/09/15 08:08:04;;;;;;;3.73;0.93;;;;;;;16.05;73.73;100295.78;6295063;28;20222;-79
2022/09/15 08:11:25;;;;;;;1.80;0.70;;;;;;;15.95;73.48;100302.38;6288479;28;20321;-77
2022/09/15 08:14:46;;;;;;;1.40;0.70;;;;;;;16.26;71.88;100295.91;6299750;28;21194;-78
2022/09/15 08:18:08;;;;;;;3.20;1.17;;;;;;;16.56;71.89;100298.47;6299880;28;20222;-75
2022/09/15 08:21:29;;;;;;;5.13;0.73;;;;;;;16.56;71.39;100293.03;6285243;28;20227;-76
2022/09/15 08:24:50;;;;;;;2.50;0.97;;;;;;;16.54;71.02;100297.81;6299205;28;20226;-85
2022/09/15 08:28:11;;;;;;;2.43;0.90;;;;;;;16.75;70.41;100300.63;6300058;28;20238;-83
2022/09/15 08:31:32;;;;;;;3.90;1.03;;;;;;;16.72;68.74;100303.72;6295393;28;20504;-85
2022/09/15 08:34:54;;;;;;;3.67;0.97;;;;;;;16.67;68.99;100303.44;6280989;28;20219;-75
2022/09/15 08:38:15;;;;;;;5.23;2.17;;;;;;;17.12;68.01;100309.66;6301919;28;20491;-74
2022/09/15 08:41:39;;;;;;;5.23;1.13;;;;;;;17.37;66.98;100303.66;6284743;28;20226;-79
2022/09/15 08:45:06;;;;;;;2.10;0.80;;;;;;;17.31;66.52;100312.59;6296526;28;20222;-79
2022/09/15 08:48:34;;;;;;;0.73;0.70;;;;;;;16.98;66.38;100308.63;6280291;28;20227;-81
2022/09/15 08:52:00;;;;;;;1.58;0.63;;;;;;;16.95;65.99;100306.31;6282540;28;20258;-81
2022/09/15 08:55:33;;;;;;;2.23;1.43;;;;;;;16.97;66.10;100314.28;6272671;28;20226;-75
2022/09/15 08:58:54;;;;;;;1.03;0.90;;;;;;;17.57;67.05;100309.31;6285568;28;20238;-62
2022/09/15 09:02:46;;;;;;;9.03;0.93;;;;;;;18.56;62.47;100300.91;6275043;28;20510;-62
2022/09/15 09:06:17;;;;;;;0.57;0.57;;;;;;;18.15;61.80;100300.78;6285726;28;20230;-62
2022/09/15 09:09:46;;;;;;;4.43;1.65;;;;;;;18.06;62.96;100293.81;6280994;28;20257;-62
2022/09/15 09:13:20;;;;;;;1.67;0.70;;;;;;;17.84;63.32;100300.34;6288046;28;20230;-79
2022/09/15 09:17:01;;;;;;;0.77;0.77;;;;;;;17.74;62.80;100305.28;6288922;28;20253;-77
2022/09/15 09:20:37;;;;;;;1.47;0.70;;;;;;;17.48;62.44;100302.31;6290006;28;20230;-76
2022/09/15 09:24:05;;;;;;;4.00;1.25;;;;;;;17.96;61.37;100300.66;6294140;28;20223;-75
2022/09/15 09:27:30;;;;;;;1.85;0.80;;;;;;;18.42;58.87;100288.16;6279943;28;20225;-76
2022/09/15 09:30:52;;;;;;;0.93;0.70;;;;;;;18.21;59.14;100291.00;6294838;28;20218;-75
2022/09/15 09:34:20;;;;;;;2.95;1.88;;;;;;;18.02;60.35;100297.97;6297559;28;20591;-75
2022/09/15 09:37:41;;;;;;;0.90;0.75;;;;;;;17.42;60.52;100303.06;6293595;28;20552;-76
2022/09/15 09:41:05;;;;;;;2.67;0.77;;;;;;;17.12;61.83;100298.75;6295758;28;20271;-82
2022/09/15 09:44:30;;;;;;;2.77;0.87;;;;;;;16.98;64.89;100324.97;6285384;28;20226;-79
2022/09/15 09:47:52;;;;;;;3.70;2.80;;;;;;;16.36;71.42;100357.19;6299682;28;20219;-83
2022/09/15 09:51:37;;;;;;;1.63;0.80;;;;;;;15.71;74.96;100345.19;6291359;28;21053;-77
2022/09/15 09:55:00;;;;;;;1.20;0.65;;;;;;;15.71;74.83;100346.06;6297289;28;20671;-82
2022/09/15 09:58:23;;;;;;;3.00;2.13;;;;;;;15.85;75.36;100331.66;6287819;28;20234;-79
2022/09/15 10:02:05;;;;;;;3.17;1.90;;;;;;;15.89;75.80;100333.00;6293187;28;20246;-80
2022/09/15 10:05:25;;;;;;;0.60;0.60;;;;;;;16.08;74.31;100331.66;6287834;28;21611;-75
2022/09/15 10:08:56;;;;;;;2.17;1.07;;;;;;;16.60;73.23;100329.75;6292386;28;20234;-75
2022/09/15 10:12:22;;;;;;;3.90;2.40;;;;;;;17.64;70.82;100325.75;6267087;28;20230;-78
2022/09/15 10:15:43;;;;;;;4.25;1.45;;;;;;;18.27;68.79;100315.56;6292598;28;20639;-79
2022/09/15 10:19:06;;;;;;;2.45;1.75;;;;;;;17.98;69.25;100323.94;6271315;28;20227;-78
2022/09/15 10:22:31;;;;;;;1.30;1.20;;;;;;;18.61;67.23;100306.56;6297570;28;20226;-79
2022/09/15 10:25:55;;;;;;;1.33;0.93;;;;;;;19.15;66.42;100318.38;6289605;28;21307;-83
2022/09/15 10:29:18;;;;;;;1.25;0.90;;;;;;;18.83;65.65;100315.53;6279592;28;20595;-81
2022/09/15 10:32:40;;;;;;;0.63;0.55;;;;;;;18.72;63.77;100318.81;6297613;28;20219;-79
2022/09/15 10:36:12;;;;;;;1.65;1.17;;;;;;;18.15;63.00;100310.84;6296366;28;20226;-80
2022/09/15 10:39:43;;;;;;;0.80;0.60;;;;;;;17.89;63.61;100302.47;6302084;28;20226;-81
2022/09/15 10:43:28;;;;;;;0.90;0.82;;;;;;;19.07;61.78;100304.91;6298705;28;20261;-82
2022/09/15 10:46:55;;;;;;;0.65;0.57;;;;;;;19.99;56.56;100307.81;6286505;28;20779;-77
2022/09/15 10:50:29;;;;;;;0.50;0.50;;;;;;;22.51;48.32;100289.66;6265757;28;20254;-80
2022/09/15 10:54:17;;;;;;;1.65;0.40;;;;;;;25.44;41.05;100285.88;6268118;28;20321;-74
2022/09/15 10:57:59;;;;;;;1.17;0.77;;;;;;;27.85;35.99;100293.25;6276646;28;20309;-71
2022/09/15 11:01:44;;;;;;;1.17;0.55;;;;;;;28.84;32.12;100284.00;6288755;28;20604;-70
2022/09/15 11:05:25;;;;;;;1.85;0.85;;;;;;;28.95;31.50;100291.28;6276050;28;20218;-70
2022/09/15 11:09:00;;;;;;;0.80;0.50;;;;;;;30.71;29.17;100288.75;6286272;28;22581;-70
2022/09/15 11:12:31;;;;;;;0.40;0.40;;;;;;;31.00;28.14;100299.28;6281505;28;21175;-72
2022/09/15 11:16:03;;;;;;;2.72;0.50;;;;;;;28.81;29.80;100297.59;6281757;28;20615;-68
2022/09/15 11:19:43;;;;;;;0.82;0.32;;;;;;;30.36;28.16;100291.59;6280670;28;20238;-73
2022/09/15 11:23:11;;;;;;;0.80;0.60;;;;;;;31.15;27.28;100286.09;6282137;28;20231;-71
2022/09/15 11:26:40;;;;;;;1.88;0.60;;;;;;;26.30;33.93;100296.50;6282518;28;20497;-72
2022/09/15 11:30:07;;;;;;;2.05;1.30;;;;;;;27.76;31.33;100316.97;6291980;28;20229;-71
2022/09/15 11:33:32;;;;;;;0.50;0.50;;;;;;;23.54;39.84;100332.59;6284330;28;20328;-70
2022/09/15 11:36:59;;;;;;;2.05;0.32;;;;;;;21.25;45.64;100345.72;6285870;28;20493;-69
2022/09/15 11:40:25;;;;;;;1.20;1.10;;;;;;;19.82;52.32;100359.38;6287433;28;20543;-71
2022/09/15 11:44:07;;;;;;;0.75;0.50;;;;;;;18.91;56.77;100348.13;6290751;28;20222;-72
2022/09/15 11:47:30;;;;;;;1.73;0.93;;;;;;;18.69;58.29;100344.63;6291286;28;20757;-69
2022/09/15 11:50:55;;;;;;;1.40;0.75;;;;;;;20.04;56.74;100340.88;6307037;28;20223;-68
2022/09/15 11:54:21;;;;;;;1.45;0.50;;;;;;;26.02;42.99;100322.28;6295610;28;20513;-68
2022/09/15 11:57:47;;;;;;;1.80;0.70;;;;;;;29.76;34.90;100320.22;6283843;28;22239;-70
2022/09/15 12:01:15;;;;;;;0.88;0.50;;;;;;;30.91;32.18;100321.31;6289918;28;20317;-69
2022/09/15 12:04:43;;;;;;;0.95;0.47;;;;;;;31.32;30.78;100314.44;6288332;28;20234;-70
2022/09/15 12:08:09;;;;;;;0.50;0.50;;;;;;;28.71;33.44;100315.03;6281142;28;20229;-70
2022/09/15 12:11:33;;;;;;;3.45;0.47;;;;;;;31.94;29.99;100310.22;6280625;28;20242;-71
2022/09/15 12:14:54;;;;;;;2.50;0.75;;;;;;;25.31;39.68;100327.53;6287109;28;20231;-71
2022/09/15 12:18:25;;;;;;;0.95;0.60;;;;;;;22.39;46.93;100330.75;6282958;28;20234;-70
2022/09/15 12:21:52;;;;;;;2.22;0.93;;;;;;;24.75;42.88;100331.03;6286033;28;20222;-70
2022/09/15 12:25:18;;;;;;;1.58;0.75;;;;;;;22.96;44.29;100324.03;6284976;28;20600;-68
2022/09/15 12:28:42;;;;;;;0.88;0.43;;;;;;;20.94;49.32;100334.63;6286855;28;20532;-68
2022/09/15 12:32:21;;;;;;;4.00;0.70;;;;;;;20.61;50.06;100327.34;6286945;28;22075;-68
2022/09/15 12:35:43;;;;;;;0.35;0.35;;;;;;;21.86;47.33;100330.34;6285093;28;20711;-68
2022/09/15 12:39:19;;;;;;;3.83;0.65;;;;;;;21.84;47.05;100326.19;6295854;28;20226;-68
2022/09/15 12:42:46;;;;;;;0.95;0.50;;;;;;;20.98;48.41;100325.78;6291610;28;20600;-67
2022/09/15 12:46:18;;;;;;;1.73;0.52;;;;;;;21.81;47.14;100319.19;6276664;28;20246;-70
2022/09/15 12:49:45;;;;;;;1.08;0.50;;;;;;;23.35;44.33;100307.03;6283524;28;20265;-68
2022/09/15 12:53:18;;;;;;;1.35;1.00;;;;;;;25.80;39.32;100301.16;6292138;28;20753;-65
2022/09/15 12:56:41;;;;;;;1.45;0.80;;;;;;;24.72;39.53;100309.41;6287357;28;20238;-64
2022/09/15 13:00:32;;;;;;;0.98;0.60;;;;;;;27.68;34.21;100305.25;6290939;28;20238;-65
2022/09/15 13:04:42;;;;;;;0.50;0.50;;;;;;;25.86;36.91;100300.16;6284123;28;20234;-64
2022/09/15 13:08:03;;;;;;;3.58;0.95;;;;;;;22.62;42.02;100306.25;6288318;28;21754;-63
2022/09/15 13:11:35;;;;;;;0.82;0.80;;;;;;;25.49;37.94;100312.75;6286525;28;20226;-63
2022/09/15 13:15:01;;;;;;;3.85;1.25;;;;;;;25.21;38.11;100319.03;6284229;28;20234;-64
2022/09/15 13:18:24;;;;;;;1.17;0.50;;;;;;;23.71;40.65;100306.09;6288563;28;20230;-64
2022/09/15 13:21:52;;;;;;;2.13;0.60;;;;;;;21.99;45.27;100318.44;6288718;28;20226;-63
2022/09/15 13:25:17;;;;;;;1.75;0.80;;;;;;;20.86;45.98;100330.22;6282844;28;20555;-63
2022/09/15 13:28:40;;;;;;;1.60;0.90;;;;;;;19.96;48.03;100352.03;6285238;28;20321;-63
2022/09/15 13:32:11;;;;;;;0.90;0.65;;;;;;;18.87;48.91;100366.81;6274240;28;20226;-65
2022/09/15 13:36:12;;;;;;;1.40;0.60;;;;;;;18.27;52.41;100372.06;6274435;28;20820;-64
2022/09/15 13:39:51;;;;;;;0.98;0.63;;;;;;;17.95;55.01;100387.09;6208545;28;20244;-64
2022/09/15 13:43:36;;;;;;;0.93;0.50;;;;;;;17.38;61.11;100388.97;6276739;28;20230;-62
2022/09/15 13:47:11;;;;;;;0.60;0.52;;;;;;;17.26;63.79;100375.00;6272307;28;20390;-63
2022/09/15 13:50:37;;;;;;;0.65;0.50;;;;;;;17.34;64.42;100368.56;6279252;28;20234;-63
2022/09/15 13:54:03;;;;;;;1.20;1.00;;;;;;;17.53;66.07;100365.28;6283390;28;20231;-63
2022/09/15 13:57:24;;;;;;;0.98;0.73;;;;;;;17.91;64.92;100366.72;6287648;28;20508;-63
2022/09/15 14:00:57;;;;;;;0.82;0.63;;;;;;;18.66;62.49;100347.78;6289087;28;20230;-62
2022/09/15 14:04:23;;;;;;;4.78;0.88;;;;;;;18.87;61.21;100350.44;6286729;28;20616;-65
2022/09/15 14:07:49;;;;;;;1.63;0.77;;;;;;;18.63;60.50;100353.63;6292976;28;20277;-66
2022/09/15 14:11:13;;;;;;;1.38;0.50;;;;;;;19.86;57.37;100352.44;6294473;28;20234;-65
2022/09/15 14:14:40;;;;;;;3.50;0.80;;;;;;;19.61;56.58;100353.25;6287717;28;20550;-65
2022/09/15 14:18:01;;;;;;;2.72;0.77;;;;;;;22.01;49.95;100341.00;6291671;28;20238;-67
2022/09/15 14:21:25;;;;;;;0.77;0.63;;;;;;;23.76;45.67;100344.78;6278991;28;20229;-63
2022/09/15 14:24:47;;;;;;;1.80;0.80;;;;;;;24.30;44.85;100339.03;6286757;28;20231;-63
2022/09/15 14:28:08;;;;;;;1.98;1.35;;;;;;;21.79;48.05;100353.41;6282384;28;20584;-62
2022/09/15 14:31:31;;;;;;;1.95;1.05;;;;;;;21.07;50.52;100356.56;6288858;28;20312;-79
2022/09/15 14:34:55;;;;;;;2.28;0.88;;;;;;;20.36;52.20;100361.13;6292205;28;20625;-79
2022/09/15 14:38:25;;;;;;;1.95;1.63;;;;;;;20.52;51.55;100361.50;6271331;28;20495;-71
2022/09/15 14:41:47;;;;;;;2.05;0.60;;;;;;;20.37;52.86;100357.31;6278220;28;20265;-76
2022/09/15 14:45:13;;;;;;;1.08;0.35;;;;;;;19.32;54.53;100350.78;6294987;28;20234;-75
2022/09/15 14:48:35;;;;;;;1.38;1.02;;;;;;;18.48;56.51;100352.09;6290075;28;20505;-77
2022/09/15 14:51:56;;;;;;;5.20;1.33;;;;;;;18.28;57.79;100354.63;6296147;28;20505;-75
2022/09/15 14:55:23;;;;;;;1.65;0.60;;;;;;;17.98;56.23;100375.78;6285919;28;20752;-78
2022/09/15 14:58:48;;;;;;;1.02;0.40;;;;;;;17.79;55.23;100375.59;6294883;28;20230;-76
2022/09/15 15:02:23;;;;;;;2.80;1.45;;;;;;;17.62;55.92;100394.09;6291636;28;20845;-76
2022/09/15 15:05:48;;;;;;;1.35;0.57;;;;;;;16.92;57.81;100387.56;6286386;28;20700;-76
2022/09/15 15:09:17;;;;;;;2.35;0.57;;;;;;;16.83;60.84;100377.78;6289645;28;20223;-78
2022/09/15 15:12:43;;;;;;;0.63;0.40;;;;;;;16.69;60.88;100368.56;6291272;28;20235;-77
2022/09/15 15:16:18;;;;;;;0.82;0.82;;;;;;;16.55;61.75;100366.69;6282054;28;20230;-77
2022/09/15 15:19:41;;;;;;;0.60;0.60;;;;;;;16.51;62.53;100368.13;6287647;28;20623;-77
2022/09/15 15:23:14;;;;;;;0.47;0.47;;;;;;;16.39;61.88;100362.25;6295068;28;20389;-78
2022/09/15 15:26:36;;;;;;;2.10;0.87;;;;;;;16.32;62.79;100357.72;6279742;28;20238;-78
2022/09/15 15:30:19;;;;;;;0.43;0.40;;;;;;;16.29;62.82;100358.13;6295602;28;20219;-76
2022/09/15 15:33:48;;;;;;;1.10;0.80;;;;;;;16.28;63.50;100356.41;6298424;28;20364;-77
2022/09/15 15:37:16;;;;;;;2.33;2.03;;;;;;;16.34;63.84;100364.69;6292089;28;20229;-76
2022/09/15 15:40:39;;;;;;;0.70;0.70;;;;;;;16.47;64.01;100359.44;6287788;28;21560;-77
2022/09/15 15:44:06;;;;;;;2.13;0.53;;;;;;;16.43;63.73;100360.84;6292199;28;20313;-77
2022/09/15 15:47:29;;;;;;;0.77;0.50;;;;;;;16.65;63.47;100369.97;6291907;28;20309;-77
2022/09/15 15:50:52;;;;;;;1.38;0.90;;;;;;;16.10;66.19;100370.38;6301866;28;21066;-78
2022/09/15 15:54:13;;;;;;;1.80;0.57;;;;;;;16.14;66.13;100368.97;6285284;28;20679;-78
2022/09/15 15:57:38;;;;;;;2.13;0.57;;;;;;;16.20;66.63;100360.06;6284553;28;20227;-77
2022/09/15 16:00:59;;;;;;;1.67;0.93;;;;;;;16.19;66.88;100360.28;6293357;28;20227;-77